Latest Weather Observations for Snowtown

IDS60801

Issued at 5:02 pm CDT Tuesday 31 March 2015 (issued every 30 minutes, with the page automatically refreshed every 10 minutes)

About weather observations | Map of weather stations | Latest weather observations for SA | Other Formats
Station Details ID: 021133 Name: RAYVILLE PARK Lat: -33.77 Lon: 138.22 Height: 109.1 m
Data from the previous 72 hours. | See also: Recent months at Snowtown
Date/Time
CDT
Temp
°C
App
Temp
°C
Dew
Point
Rel
Hum
%
Delta-T
°C
Wind Press
QNH
hPa
Press
MSL
hPa
Rain
since 9 am
mm
Dir
 
Spd
km/h
Gust
km/h
Spd
kts
Gust
kts
31/05:00pm 31.6 27.5 -0.1 13 15.3 E 11 15 6 8 1018.6 1018.3 0.0
31/04:30pm 31.9 28.8 1.1 14 15.2 N 7 17 4 9 1018.6 1018.3 0.0
31/04:00pm 31.9 28.4 1.1 14 15.2 ESE 9 19 5 10 1018.9 1018.6 0.0
31/03:30pm 31.1 26.7 0.5 14 14.9 ENE 13 20 7 11 1019.2 1018.9 0.0
31/03:00pm 30.9 27.0 1.3 15 14.6 NE 11 17 6 9 1019.5 1019.2 0.0
31/02:30pm 30.7 27.5 2.9 17 14.0 NNW 9 15 5 8 1020.0 1019.7 0.0
31/02:00pm 30.5 27.2 2.7 17 14.0 N 9 19 5 10 1020.6 1020.3 0.0
31/01:30pm 29.9 27.0 4.5 20 13.1 NNE 9 20 5 11 1021.2 1020.9 0.0
31/01:00pm 30.7 28.3 5.2 20 13.4 NNW 7 20 4 11 1021.8 1021.5 0.0
31/12:30pm 29.1 25.5 5.2 22 12.4 NE 13 20 7 11 1022.3 1022.0 0.0
31/12:00pm 28.4 24.9 5.3 23 12.0 NNW 13 20 7 11 1023.0 1022.6 0.0
31/11:30am 27.8 24.5 6.6 26 11.2 NNE 13 22 7 12 1023.3 1022.9 0.0
31/11:00am 26.7 22.7 6.7 28 10.6 NNE 17 24 9 13 1023.6 1023.3 0.0
31/10:30am 24.9 21.3 6.6 31 9.5 NE 15 22 8 12 1023.9 1023.6 0.0
31/10:00am 22.3 19.2 7.3 38 7.8 NNE 13 19 7 10 1024.1 1023.8 0.0
31/09:30am 21.0 17.6 7.6 42 6.9 NNE 15 19 8 10 1024.2 1023.9 0.0
31/09:00am 19.8 17.0 8.5 48 5.9 N 13 15 7 8 1024.3 1024.0 0.0
31/08:30am 17.4 16.3 9.8 61 4.0 N 6 7 3 4 1024.3 1024.0 0.0
31/08:00am 14.2 11.6 9.2 72 2.6 NNW 13 13 7 7 1024.2 1023.9 0.0
31/07:30am 12.4 9.5 8.3 76 2.0 NNW 13 13 7 7 1024.3 1024.0 0.0
31/07:00am 12.0 9.1 8.1 77 1.9 NNW 13 13 7 7 1024.0 1023.7 0.0
31/06:30am 12.2 9.7 8.1 76 2.0 NNW 11 13 6 7 1023.9 1023.6 0.0
31/06:00am 12.7 10.3 8.6 76 2.0 NNW 11 15 6 8 1023.7 1023.4 0.0
31/05:30am 12.3 9.4 8.2 76 2.0 NW 13 15 7 8 1023.4 1023.1 0.0
31/05:00am 12.4 9.4 7.9 74 2.2 NNW 13 15 7 8 1023.4 1023.1 0.0
31/04:30am 12.5 9.9 7.8 73 2.3 NNW 11 13 6 7 1023.4 1023.1 0.0
31/04:00am 11.1 9.0 6.6 74 2.1 NNE 7 11 4 6 1023.7 1023.4 0.0
31/03:30am 14.1 12.1 8.5 69 2.8 NNE 9 13 5 7 1023.6 1023.3 0.0
31/03:00am 13.9 11.4 8.1 68 2.9 N 11 15 6 8 1023.9 1023.6 0.0
31/02:30am 15.2 12.5 9.1 67 3.1 N 13 15 7 8 1024.1 1023.8 0.0
31/02:00am 13.6 10.5 7.4 66 3.0 N 13 15 7 8 1024.1 1023.8 0.0
31/01:30am 11.9 10.0 6.8 71 2.4 SW 6 7 3 4 1024.3 1024.0 0.0
31/01:00am 11.8 11.0 6.3 69 2.6 CALM 0 7 0 4 1024.2 1023.9 0.0
31/12:30am 14.1 12.5 8.1 67 3.0 SW 6 7 3 4 1024.2 1023.9 0.0
31/12:00am 14.9 12.6 9.1 68 3.0 WSW 11 13 6 7 1024.3 1024.0 0.0
 
Date/Time
CDT
Temp
°C
App
Temp
°C
Dew
Point
Rel
Hum
%
Delta-T
°C
Wind Press
QNH
hPa
Press
MSL
hPa
Rain
since 9 am
mm
Dir
 
Spd
km/h
Gust
km/h
Spd
kts
Gust
kts
30/11:30pm 15.2 13.7 9.3 68 3.0 SW 7 11 4 6 1024.6 1024.3 0.0
30/11:00pm 16.3 13.3 10.8 70 2.9 WSW 17 19 9 10 1024.8 1024.5 0.0
30/10:30pm 15.9 13.8 11.1 73 2.6 SW 13 15 7 8 1025.0 1024.7 0.0
30/10:00pm 16.2 14.0 10.9 71 2.8 SW 13 17 7 9 1025.0 1024.7 0.0
30/09:30pm 18.4 16.6 12.2 67 3.4 SSW 13 17 7 9 1024.7 1024.4 0.0
30/09:00pm 18.7 16.1 9.2 54 5.0 SSW 13 19 7 10 1024.4 1024.1 0.0
30/08:30pm 20.0 17.3 9.0 49 5.8 SSW 13 15 7 8 1024.0 1023.7 0.0
30/08:00pm 21.4 17.3 8.0 42 7.0 SSW 19 28 10 15 1023.6 1023.3 0.0
30/07:30pm 22.4 18.4 8.9 42 7.2 SSW 20 26 11 14 1023.2 1022.8 0.0
30/07:00pm 25.1 21.2 7.3 32 9.4 S 17 22 9 12 1022.9 1022.5 0.0
30/06:30pm 26.4 22.1 6.9 29 10.3 S 19 26 10 14 1022.7 1022.3 0.0
30/06:00pm 27.2 22.7 7.1 28 10.7 S 20 28 11 15 1022.5 1022.1 0.0
30/05:30pm 27.9 24.0 7.2 27 11.1 S 17 24 9 13 1022.2 1021.9 0.0
30/05:00pm 28.8 25.7 7.4 26 11.6 SW 13 20 7 11 1021.9 1021.6 0.0
30/04:30pm 28.1 24.1 6.8 26 11.3 S 17 26 9 14 1022.1 1021.8 0.0
30/04:00pm 28.5 25.2 6.6 25 11.7 S 13 24 7 13 1022.1 1021.8 0.0
30/03:30pm 28.1 24.1 6.8 26 11.3 SE 17 28 9 15 1022.2 1021.9 0.0
30/03:00pm 28.5 25.5 7.7 27 11.2 SSW 13 19 7 10 1022.5 1022.1 0.0
30/02:30pm 27.4 25.1 7.3 28 10.7 SSE 9 19 5 10 1022.8 1022.4 0.0
30/02:00pm 26.8 23.7 7.3 29 10.4 SSE 13 20 7 11 1023.3 1022.9 0.0
30/01:30pm 27.0 25.3 7.5 29 10.4 SSE 6 11 3 6 1023.7 1023.4 0.0
30/01:00pm 26.0 23.7 7.6 31 9.8 SW 9 17 5 9 1024.2 1023.9 0.0
30/12:30pm 26.2 24.5 8.2 32 9.7 WNW 7 13 4 7 1024.6 1024.3 0.0
30/12:00pm 25.0 23.1 7.6 33 9.2 ENE 7 11 4 6 1024.9 1024.6 0.0
30/11:30am 24.1 22.3 9.3 39 8.0 E 9 13 5 7 1025.2 1024.9 0.0
30/11:00am 22.8 21.5 9.9 44 7.1 NE 7 17 4 9 1025.6 1025.3 0.0
30/10:30am 21.8 20.8 10.3 48 6.3 ENE 6 11 3 6 1025.7 1025.4 0.0
30/10:00am 20.2 19.8 11.1 56 5.0 SSE 4 9 2 5 1025.6 1025.3 0.0
30/09:30am 18.1 18.3 11.9 67 3.4 SW 2 7 1 4 1025.6 1025.3 0.0
30/09:00am 16.1 15.7 13.0 82 1.7 WSW 7 9 4 5 1025.3 1025.0 0.0
30/08:30am 13.5 14.3 12.6 94 0.5 CALM 0 0 0 0 1024.9 1024.6 0.0
30/08:00am 10.1 10.0 9.5 96 0.3 CALM 0 0 0 0 1024.7 1024.4 0.0
30/07:30am 9.3 7.7 8.2 93 0.5 SW 6 11 3 6 1024.2 1023.9 0.0
30/07:00am 10.3 10.2 9.5 95 0.4 CALM 0 0 0 0 1023.9 1023.6 0.0
30/06:30am 11.1 11.2 10.3 95 0.4 CALM 0 0 0 0 1023.6 1023.3 0.0
30/06:00am 10.5 9.3 9.4 93 0.5 SW 6 9 3 5 1023.4 1023.1 0.0
30/05:30am 12.8 11.3 11.9 94 0.5 WSW 11 13 6 7 1023.2 1022.8 0.0
30/05:00am 13.5 12.3 12.7 95 0.4 WSW 11 13 6 7 1023.0 1022.6 0.0
30/04:30am 11.8 10.7 10.5 92 0.7 SW 7 7 4 4 1023.1 1022.7 0.0
30/04:00am 12.4 11.4 11.0 91 0.7 SW 7 9 4 5 1023.1 1022.7 0.0
30/03:30am 12.6 11.2 10.8 89 0.9 SW 9 11 5 6 1023.4 1023.1 0.0
30/03:00am 13.1 12.0 10.6 85 1.3 SW 7 9 4 5 1023.5 1023.2 0.0
30/02:30am 13.4 11.4 10.2 81 1.7 SW 11 11 6 6 1023.7 1023.4 0.0
30/02:00am 13.3 11.2 8.4 72 2.5 SW 9 11 5 6 1023.8 1023.5 0.0
30/01:30am 13.6 11.3 7.6 67 2.9 SW 9 11 5 6 1023.9 1023.6 0.0
30/01:00am 14.3 11.7 7.8 65 3.2 WSW 11 13 6 7 1023.9 1023.6 0.0
30/12:30am 15.3 12.5 8.5 64 3.4 WSW 13 15 7 8 1024.0 1023.7 0.0
30/12:00am 15.6 13.0 7.9 60 3.9 ESE 11 15 6 8 1024.0 1023.7 0.0
 
Date/Time
CDT
Temp
°C
App
Temp
°C
Dew
Point
Rel
Hum
%
Delta-T
°C
Wind Press
QNH
hPa
Press
MSL
hPa
Rain
since 9 am
mm
Dir
 
Spd
km/h
Gust
km/h
Spd
kts
Gust
kts
29/11:30pm 17.3 16.7 7.4 52 5.0 CALM 0 0 0 0 1024.0 1023.7 0.0
29/11:00pm 18.7 17.2 8.4 51 5.3 E 6 7 3 4 1024.1 1023.8 0.0
29/10:30pm 20.0 18.4 8.7 48 5.9 S 7 9 4 5 1024.0 1023.7 0.0
29/10:00pm 20.4 18.7 8.4 46 6.3 SSW 7 11 4 6 1023.9 1023.6 0.0
29/09:30pm 20.9 18.5 8.5 45 6.5 SSW 11 13 6 7 1023.5 1023.2 0.0
29/09:00pm 21.2 19.2 8.5 44 6.7 SSW 9 15 5 8 1023.3 1022.9 0.0
29/08:30pm 21.6 19.1 8.1 42 7.1 SSW 11 15 6 8 1023.0 1022.6 0.0
29/08:00pm 21.9 19.2 7.3 39 7.6 SW 11 15 6 8 1022.5 1022.1 0.0
29/07:30pm 22.6 19.8 6.8 36 8.1 WSW 11 13 6 7 1022.1 1021.8 0.0
29/07:00pm 23.3 20.5 7.0 35 8.5 WSW 11 15 6 8 1021.9 1021.6 0.0
29/06:30pm 23.8 20.6 7.0 34 8.7 SW 13 19 7 10 1021.7 1021.4 0.0
29/06:00pm 24.3 21.7 6.1 31 9.3 SW 9 19 5 10 1021.5 1021.2 0.0
29/05:30pm 24.4 22.1 5.7 30 9.5 NW 7 17 4 9 1021.4 1021.1 0.0
29/05:00pm 24.9 21.8 5.7 29 9.9 W 11 19 6 10 1021.4 1021.1 0.0
29/04:30pm 25.0 20.7 5.2 28 10.0 W 17 22 9 12 1021.4 1021.1 0.0
29/04:00pm 24.4 20.0 4.7 28 9.9 W 17 22 9 12 1021.5 1021.2 0.0
29/03:30pm 24.3 19.5 4.6 28 9.8 WNW 19 28 10 15 1021.5 1021.2 0.0
29/03:00pm 25.3 21.4 5.5 28 10.1 WSW 15 24 8 13 1021.5 1021.2 0.0
29/02:30pm 25.1 21.6 5.3 28 10.1 NW 13 20 7 11 1021.6 1021.3 0.0
29/02:00pm 25.6 21.8 4.1 25 10.8 NW 13 22 7 12 1021.8 1021.5 0.0
29/01:30pm 25.2 20.6 3.8 25 10.6 WNW 17 26 9 14 1022.1 1021.8 0.0
29/01:00pm 25.3 21.8 3.3 24 10.8 W 11 20 6 11 1022.5 1022.1 0.0
29/12:30pm 25.0 22.5 3.6 25 10.5 NNW 6 13 3 7 1022.7 1022.3 0.0
29/12:00pm 24.1 21.3 3.4 26 10.1 WSW 7 17 4 9 1023.0 1022.6 0.0
29/11:30am 24.2 21.1 3.5 26 10.1 ESE 9 13 5 7 1023.1 1022.7 0.0
29/11:00am 23.2 20.7 3.7 28 9.5 NE 6 13 3 7 1023.3 1022.9 0.0
29/10:30am 23.1 20.8 4.6 30 9.2 NE 6 9 3 5 1023.5 1023.2 0.0
29/10:00am 20.7 17.7 3.9 33 8.1 NNE 9 13 5 7 1023.5 1023.2 0.0
29/09:30am 18.5 16.0 5.0 41 6.5 NNW 7 11 4 6 1023.4 1023.1 0.0
29/09:00am 16.0 13.2 5.3 49 5.1 NNW 9 11 5 6 1023.2 1022.8 0.0
29/08:30am 15.1 12.0 5.6 53 4.5 NW 11 13 6 7 1022.9 1022.5 0.0
29/08:00am 13.1 10.3 5.3 59 3.7 NW 9 11 5 6 1022.5 1022.1 0.0
29/07:30am 12.6 10.7 4.8 59 3.6 NW 4 9 2 5 1022.2 1021.9 0.0
29/07:00am 13.1 11.8 4.3 55 4.0 CALM 0 0 0 0 1022.0 1021.7 0.0
29/06:30am 12.6 10.3 4.6 58 3.7 NW 6 7 3 4 1021.8 1021.5 0.0
29/06:00am 12.6 10.2 4.3 57 3.8 NW 6 7 3 4 1021.3 1021.0 0.0
29/05:30am 11.2 8.6 4.0 61 3.2 NW 7 9 4 5 1021.1 1020.8 0.0
29/05:00am 10.3 8.1 3.3 62 3.1 NW 4 6 2 3 1021.0 1020.7 0.0
29/04:30am 11.1 7.6 3.6 60 3.3 NW 11 13 6 7 1020.9 1020.6 0.0
29/04:00am 12.2 9.2 4.2 58 3.6 NW 9 11 5 6 1020.8 1020.5 0.0
29/03:30am 11.8 10.5 4.1 59 3.5 CALM 0 0 0 0 1021.0 1020.7 0.0
29/03:00am 13.4 10.9 4.6 55 4.1 NW 7 9 4 5 1021.1 1020.8 0.0
29/02:30am 13.4 10.5 4.6 55 4.1 NW 9 11 5 6 1021.4 1021.1 0.0
29/02:00am 13.2 10.3 4.6 56 4.0 NW 9 11 5 6 1021.6 1021.3 0.0
29/01:30am 13.0 9.7 4.7 57 3.8 NW 11 11 6 6 1021.9 1021.6 0.0
29/01:00am 13.4 10.5 4.8 56 4.0 NW 9 13 5 7 1022.0 1021.7 0.0
29/12:30am 12.9 10.5 4.3 56 3.9 NW 6 9 3 5 1022.1 1021.8 0.0
29/12:00am 13.7 10.7 4.3 53 4.3 NW 9 11 5 6 1022.1 1021.8 0.0
 
Date/Time
CDT
Temp
°C
App
Temp
°C
Dew
Point
Rel
Hum
%
Delta-T
°C
Wind Press
QNH
hPa
Press
MSL
hPa
Rain
since 9 am
mm
Dir
 
Spd
km/h
Gust
km/h
Spd
kts
Gust
kts
28/11:30pm 13.7 11.2 4.8 55 4.1 NNW 7 9 4 5 1021.8 1021.5 0.0
28/11:00pm 14.1 11.5 4.1 51 4.6 NNW 7 11 4 6 1021.9 1021.6 0.0
28/10:30pm 14.1 12.3 3.6 49 4.8 WNW 2 7 1 4 1022.1 1021.8 0.0
28/10:00pm 15.2 13.2 4.3 48 5.1 WNW 4 6 2 3 1022.6 1022.2 0.0
28/09:30pm 15.0 11.7 4.4 49 4.9 WNW 11 13 6 7 1022.3 1022.0 0.0
28/09:00pm 14.2 10.7 3.7 49 4.8 WNW 11 13 6 7 1022.2 1021.9 0.0
28/08:30pm 14.2 12.0 3.1 47 5.0 W 4 7 2 4 1022.0 1021.7 0.0
28/08:00pm 16.6 15.3 4.0 43 5.9 CALM 0 0 0 0 1021.9 1021.6 0.0
28/07:30pm 18.5 17.2 3.9 38 6.9 CALM 0 0 0 0 1021.7 1021.4 0.0
28/07:00pm 19.7 17.5 3.4 34 7.7 WNW 4 7 2 4 1021.4 1021.1 0.0
28/06:30pm 20.5 17.3 3.3 32 8.2 WNW 9 13 5 7 1021.2 1020.9 0.0
28/06:00pm 20.9 17.4 3.6 32 8.3 WNW 11 15 6 8 1020.9 1020.6 0.0
28/05:30pm 21.3 17.8 3.5 31 8.5 WNW 11 15 6 8 1021.0 1020.7 0.0

Other Formats:

Comma delimited format used in spreadsheet applications
http://www.bom.gov.au/fwo/IDS60801/IDS60801.95670.axf

JavaScript Object Notation format (JSON) in row-major order
http://www.bom.gov.au/fwo/IDS60801/IDS60801.95670.json